Aérodrome :
LOGIN :

S'inscrire | Disclaimer

   EN    FR    IT 

 










Légende :    VFR   VFR Marginal   IFR   IFR Intensif   IFR Très Intensif
Visi : 
Plafond : 
>= 8 km
>= 3000ft
5 à 8 km
1000 à 3000 ft
1500m à 5 km
500 à 1000 ft
800 à 1500m
200 à 500 ft
< 800m
< 200 ft
Symboles :   Orages  Brouillard  Fortes neiges  Fortes précipitations  Vent > 20 kt
SIGMETs :   Divers  Orages  Givrage  Turbulence  Onde Orograph.  Cendres Volcan.






- Altitude de l'aérodrome : 249 ft


EGOS - RAF Shawbury

DERNIER METAR :
  • 122250Z 26008KT 9999 FEW020 BKN040 06/04 Q1001 TEMPO 7000 SHRA SCT018 RMK BLU TEMPO WHT

METARs EXPIRÉS :
  • 122229Z 29010KT 9999 -SHRA FEW020 BKN045 06/05 Q1001 TEMPO 7000 SHRA SCT018 RMK BLU TEMPO WHT
  • 122220Z 30012KT 7000 SHRA FEW018 SCT032 BKN050 07/05 Q1001 TEMPO 9999 NSW RMK WHT TEMPO BLU
  • 122150Z 28011KT 9999 -SHRA FEW016 SCT050 BKN150 07/05 Q1000 TEMPO -SHRA SCT016 RMK BLU TEMPO WHT
  • 122120Z 29011KT 9999 FEW025 BKN110 07/05 Q1000 TEMPO -SHRA SCT016 RMK BLU TEMPO WHT
  • 122050Z 28009KT 9999 FEW020 SCT025 BKN180 06/05 Q1000 TEMPO -SHRA SCT016 RMK BLU TEMPO WHT

TAF AMD TAF EGOS
Valide du 12 à 22h jusqu'au 13 à 02h UTC


122222Z 1222/1302 28010KT 9999 SCT030
PROB30
TEMPO 1222/1302 7000 SHRA SCT016



MET'MAP, la Météo Aéronautique d'un coup d'oeil ! - Copyright ORBIFLY Décembre 2007 - Disclaimer

ORBIFLY MET'MAP TEAM :

Programmation & Développement : Alexandra Zaïnal
Conception & Développement : Baudouin d'Aumeries
Co-Programmation & Développement : Marc-Olivier Méhu
Soutien technique & logistique : Manuel Goepfert

Contact : metmap@orbifly.com




SOURCES & CREDITS :

   NOAA